sensor_id;sensor_type;location;lat;lon;timestamp;P1;durP1;ratioP1;P2;durP2;ratioP2
16839;SDS011;8536;52.150;11.572;2023-03-24T00:01:04;4.10;;;2.22;;
16839;SDS011;8536;52.150;11.572;2023-03-24T00:03:31;3.72;;;2.58;;
16839;SDS011;8536;52.150;11.572;2023-03-24T00:05:59;2.20;;;2.00;;
16839;SDS011;8536;52.150;11.572;2023-03-24T00:08:31;4.00;;;2.20;;
16839;SDS011;8536;52.150;11.572;2023-03-24T00:11:02;2.13;;;1.92;;
16839;SDS011;8536;52.150;11.572;2023-03-24T00:13:32;2.00;;;1.77;;
16839;SDS011;8536;52.150;11.572;2023-03-24T00:16:04;3.20;;;1.98;;
16839;SDS011;8536;52.150;11.572;2023-03-24T00:18:34;5.30;;;2.13;;
16839;SDS011;8536;52.150;11.572;2023-03-24T00:21:02;2.80;;;1.92;;
16839;SDS011;8536;52.150;11.572;2023-03-24T00:23:30;2.22;;;1.83;;
16839;SDS011;8536;52.150;11.572;2023-03-24T00:26:01;2.20;;;1.70;;
16839;SDS011;8536;52.150;11.572;2023-03-24T00:28:30;2.92;;;1.90;;
16839;SDS011;8536;52.150;11.572;2023-03-24T00:30:59;2.03;;;1.70;;
16839;SDS011;8536;52.150;11.572;2023-03-24T00:33:27;1.95;;;1.67;;
16839;SDS011;8536;52.150;11.572;2023-03-24T00:35:58;2.75;;;1.65;;
16839;SDS011;8536;52.150;11.572;2023-03-24T00:38:25;2.30;;;1.90;;
16839;SDS011;8536;52.150;11.572;2023-03-24T00:40:52;2.60;;;1.67;;
16839;SDS011;8536;52.150;11.572;2023-03-24T00:43:19;2.13;;;1.92;;
16839;SDS011;8536;52.150;11.572;2023-03-24T00:45:46;4.55;;;2.00;;
16839;SDS011;8536;52.150;11.572;2023-03-24T00:48:13;4.07;;;1.92;;
16839;SDS011;8536;52.150;11.572;2023-03-24T00:50:47;1.75;;;1.65;;
16839;SDS011;8536;52.150;11.572;2023-03-24T00:53:14;1.95;;;1.70;;
16839;SDS011;8536;52.150;11.572;2023-03-24T00:55:45;2.20;;;1.40;;
16839;SDS011;8536;52.150;11.572;2023-03-24T00:58:16;1.65;;;1.40;;
16839;SDS011;8536;52.150;11.572;2023-03-24T01:00:45;1.85;;;1.40;;
16839;SDS011;8536;52.150;11.572;2023-03-24T01:03:13;1.65;;;1.35;;
16839;SDS011;8536;52.150;11.572;2023-03-24T01:05:40;1.85;;;1.45;;
16839;SDS011;8536;52.150;11.572;2023-03-24T01:08:08;1.95;;;1.75;;
16839;SDS011;8536;52.150;11.572;2023-03-24T01:10:36;1.60;;;1.35;;
16839;SDS011;8536;52.150;11.572;2023-03-24T01:13:16;1.50;;;1.40;;
16839;SDS011;8536;52.150;11.572;2023-03-24T01:15:43;2.33;;;1.80;;
16839;SDS011;8536;52.150;11.572;2023-03-24T01:18:10;3.83;;;1.80;;
16839;SDS011;8536;52.150;11.572;2023-03-24T01:20:41;2.50;;;1.83;;
16839;SDS011;8536;52.150;11.572;2023-03-24T01:23:12;3.03;;;1.83;;
16839;SDS011;8536;52.150;11.572;2023-03-24T01:25:40;2.00;;;1.70;;
16839;SDS011;8536;52.150;11.572;2023-03-24T01:28:11;2.92;;;1.70;;
16839;SDS011;8536;52.150;11.572;2023-03-24T01:30:38;1.98;;;1.70;;
16839;SDS011;8536;52.150;11.572;2023-03-24T01:33:04;2.50;;;1.60;;
16839;SDS011;8536;52.150;11.572;2023-03-24T01:35:32;2.25;;;1.70;;
16839;SDS011;8536;52.150;11.572;2023-03-24T01:37:58;2.58;;;1.92;;
16839;SDS011;8536;52.150;11.572;2023-03-24T01:40:27;1.58;;;1.48;;
16839;SDS011;8536;52.150;11.572;2023-03-24T01:42:55;2.00;;;1.80;;
16839;SDS011;8536;52.150;11.572;2023-03-24T01:48:45;2.15;;;1.67;;
16839;SDS011;8536;52.150;11.572;2023-03-24T01:51:17;2.05;;;1.80;;
16839;SDS011;8536;52.150;11.572;2023-03-24T01:53:49;3.15;;;1.75;;
16839;SDS011;8536;52.150;11.572;2023-03-24T01:56:18;2.05;;;1.85;;
16839;SDS011;8536;52.150;11.572;2023-03-24T01:58:54;2.28;;;1.75;;
16839;SDS011;8536;52.150;11.572;2023-03-24T02:01:23;2.28;;;1.92;;
16839;SDS011;8536;52.150;11.572;2023-03-24T02:03:55;2.13;;;1.70;;
16839;SDS011;8536;52.150;11.572;2023-03-24T02:06:24;2.85;;;1.67;;
16839;SDS011;8536;52.150;11.572;2023-03-24T02:08:52;2.22;;;2.03;;
16839;SDS011;8536;52.150;11.572;2023-03-24T02:11:21;5.20;;;2.15;;
16839;SDS011;8536;52.150;11.572;2023-03-24T02:13:49;2.30;;;2.08;;
16839;SDS011;8536;52.150;11.572;2023-03-24T02:16:38;2.78;;;2.30;;
16839;SDS011;8536;52.150;11.572;2023-03-24T02:22:16;3.65;;;2.22;;
16839;SDS011;8536;52.150;11.572;2023-03-24T02:25:09;4.00;;;2.60;;
16839;SDS011;8536;52.150;11.572;2023-03-24T02:30:49;4.20;;;2.20;;
16839;SDS011;8536;52.150;11.572;2023-03-24T02:34:02;2.40;;;2.20;;
16839;SDS011;8536;52.150;11.572;2023-03-24T02:42:20;3.65;;;2.40;;
16839;SDS011;8536;52.150;11.572;2023-03-24T02:50:31;2.90;;;2.42;;
16839;SDS011;8536;52.150;11.572;2023-03-24T02:58:58;3.35;;;2.50;;
16839;SDS011;8536;52.150;11.572;2023-03-24T03:04:21;4.35;;;3.03;;
16839;SDS011;8536;52.150;11.572;2023-03-24T03:06:55;5.05;;;2.70;;
16839;SDS011;8536;52.150;11.572;2023-03-24T03:09:24;4.03;;;2.72;;
16839;SDS011;8536;52.150;11.572;2023-03-24T03:11:52;2.97;;;2.40;;
16839;SDS011;8536;52.150;11.572;2023-03-24T03:14:24;2.35;;;2.15;;
16839;SDS011;8536;52.150;11.572;2023-03-24T03:17:04;5.00;;;2.78;;
16839;SDS011;8536;52.150;11.572;2023-03-24T03:19:40;3.08;;;2.40;;
16839;SDS011;8536;52.150;11.572;2023-03-24T03:22:14;2.90;;;2.58;;
16839;SDS011;8536;52.150;11.572;2023-03-24T03:24:44;3.47;;;2.70;;
16839;SDS011;8536;52.150;11.572;2023-03-24T03:27:16;2.53;;;2.33;;
16839;SDS011;8536;52.150;11.572;2023-03-24T03:29:53;3.45;;;2.47;;
16839;SDS011;8536;52.150;11.572;2023-03-24T03:32:24;3.20;;;2.40;;
16839;SDS011;8536;52.150;11.572;2023-03-24T03:40:22;3.33;;;2.40;;
16839;SDS011;8536;52.150;11.572;2023-03-24T03:42:50;3.55;;;2.55;;
16839;SDS011;8536;52.150;11.572;2023-03-24T03:45:17;5.22;;;2.88;;
16839;SDS011;8536;52.150;11.572;2023-03-24T03:47:44;2.97;;;2.67;;
16839;SDS011;8536;52.150;11.572;2023-03-24T03:50:12;3.83;;;2.90;;
16839;SDS011;8536;52.150;11.572;2023-03-24T03:52:39;3.63;;;2.72;;
16839;SDS011;8536;52.150;11.572;2023-03-24T03:55:06;4.95;;;3.08;;
16839;SDS011;8536;52.150;11.572;2023-03-24T03:57:34;3.38;;;2.95;;
16839;SDS011;8536;52.150;11.572;2023-03-24T04:00:02;3.03;;;2.65;;
16839;SDS011;8536;52.150;11.572;2023-03-24T04:02:38;3.05;;;2.75;;
16839;SDS011;8536;52.150;11.572;2023-03-24T04:05:15;3.63;;;3.13;;
16839;SDS011;8536;52.150;11.572;2023-03-24T04:07:56;4.47;;;2.65;;
16839;SDS011;8536;52.150;11.572;2023-03-24T04:27:10;3.28;;;2.70;;
16839;SDS011;8536;52.150;11.572;2023-03-24T04:29:43;4.57;;;2.88;;
16839;SDS011;8536;52.150;11.572;2023-03-24T04:32:34;5.05;;;3.10;;
16839;SDS011;8536;52.150;11.572;2023-03-24T04:35:09;3.55;;;2.90;;
16839;SDS011;8536;52.150;11.572;2023-03-24T04:37:39;4.22;;;2.88;;
16839;SDS011;8536;52.150;11.572;2023-03-24T04:40:08;4.20;;;2.88;;
16839;SDS011;8536;52.150;11.572;2023-03-24T04:42:40;3.15;;;2.47;;
16839;SDS011;8536;52.150;11.572;2023-03-24T04:45:10;3.15;;;2.67;;
16839;SDS011;8536;52.150;11.572;2023-03-24T04:47:41;3.75;;;2.60;;
16839;SDS011;8536;52.150;11.572;2023-03-24T04:50:10;2.95;;;2.60;;
16839;SDS011;8536;52.150;11.572;2023-03-24T04:52:38;2.67;;;2.47;;
16839;SDS011;8536;52.150;11.572;2023-03-24T04:58:03;3.40;;;3.10;;
16839;SDS011;8536;52.150;11.572;2023-03-24T05:00:30;3.97;;;2.97;;
16839;SDS011;8536;52.150;11.572;2023-03-24T05:02:57;3.45;;;3.13;;
16839;SDS011;8536;52.150;11.572;2023-03-24T05:05:24;4.05;;;3.10;;
16839;SDS011;8536;52.150;11.572;2023-03-24T05:07:50;3.75;;;2.97;;
16839;SDS011;8536;52.150;11.572;2023-03-24T05:10:17;3.83;;;3.20;;
16839;SDS011;8536;52.150;11.572;2023-03-24T05:12:47;2.85;;;2.58;;
16839;SDS011;8536;52.150;11.572;2023-03-24T05:15:14;3.08;;;2.70;;
16839;SDS011;8536;52.150;11.572;2023-03-24T05:17:41;4.22;;;2.95;;
16839;SDS011;8536;52.150;11.572;2023-03-24T05:20:08;3.58;;;2.78;;
16839;SDS011;8536;52.150;11.572;2023-03-24T05:22:36;2.78;;;2.58;;
16839;SDS011;8536;52.150;11.572;2023-03-24T05:25:04;4.00;;;2.80;;
16839;SDS011;8536;52.150;11.572;2023-03-24T05:27:31;4.05;;;3.20;;
16839;SDS011;8536;52.150;11.572;2023-03-24T05:29:58;3.42;;;2.90;;
16839;SDS011;8536;52.150;11.572;2023-03-24T05:32:25;3.10;;;2.72;;
16839;SDS011;8536;52.150;11.572;2023-03-24T05:34:52;3.35;;;2.83;;
16839;SDS011;8536;52.150;11.572;2023-03-24T05:37:19;3.58;;;2.58;;
16839;SDS011;8536;52.150;11.572;2023-03-24T05:39:45;3.50;;;3.20;;
16839;SDS011;8536;52.150;11.572;2023-03-24T05:42:12;4.00;;;2.80;;
16839;SDS011;8536;52.150;11.572;2023-03-24T05:44:39;3.17;;;2.75;;
16839;SDS011;8536;52.150;11.572;2023-03-24T05:47:05;2.97;;;2.67;;
16839;SDS011;8536;52.150;11.572;2023-03-24T05:49:32;3.35;;;2.63;;
16839;SDS011;8536;52.150;11.572;2023-03-24T05:51:59;3.25;;;2.78;;
16839;SDS011;8536;52.150;11.572;2023-03-24T05:54:25;3.90;;;2.90;;
16839;SDS011;8536;52.150;11.572;2023-03-24T05:56:52;3.28;;;2.80;;
16839;SDS011;8536;52.150;11.572;2023-03-24T05:59:18;2.90;;;2.60;;
16839;SDS011;8536;52.150;11.572;2023-03-24T06:01:45;2.80;;;2.60;;
16839;SDS011;8536;52.150;11.572;2023-03-24T06:04:13;4.03;;;2.60;;
16839;SDS011;8536;52.150;11.572;2023-03-24T06:06:40;3.28;;;2.97;;
16839;SDS011;8536;52.150;11.572;2023-03-24T06:09:06;3.50;;;2.70;;
16839;SDS011;8536;52.150;11.572;2023-03-24T06:11:33;4.28;;;3.40;;
16839;SDS011;8536;52.150;11.572;2023-03-24T06:13:59;3.90;;;2.83;;
16839;SDS011;8536;52.150;11.572;2023-03-24T06:16:26;3.53;;;2.88;;
16839;SDS011;8536;52.150;11.572;2023-03-24T06:18:53;3.88;;;3.10;;
16839;SDS011;8536;52.150;11.572;2023-03-24T06:21:20;3.25;;;2.95;;
16839;SDS011;8536;52.150;11.572;2023-03-24T06:23:47;3.00;;;2.80;;
16839;SDS011;8536;52.150;11.572;2023-03-24T06:26:13;3.15;;;2.80;;
16839;SDS011;8536;52.150;11.572;2023-03-24T06:28:40;4.10;;;3.33;;
16839;SDS011;8536;52.150;11.572;2023-03-24T06:31:08;4.38;;;3.97;;
16839;SDS011;8536;52.150;11.572;2023-03-24T06:33:40;3.75;;;3.40;;
16839;SDS011;8536;52.150;11.572;2023-03-24T06:36:08;5.30;;;3.90;;
16839;SDS011;8536;52.150;11.572;2023-03-24T06:38:35;4.85;;;3.83;;
16839;SDS011;8536;52.150;11.572;2023-03-24T06:41:02;4.22;;;3.83;;
16839;SDS011;8536;52.150;11.572;2023-03-24T06:43:30;4.05;;;3.58;;
16839;SDS011;8536;52.150;11.572;2023-03-24T06:45:56;5.97;;;3.50;;
16839;SDS011;8536;52.150;11.572;2023-03-24T06:48:23;4.07;;;3.42;;
16839;SDS011;8536;52.150;11.572;2023-03-24T06:50:51;3.67;;;3.35;;
16839;SDS011;8536;52.150;11.572;2023-03-24T06:53:18;3.65;;;3.33;;
16839;SDS011;8536;52.150;11.572;2023-03-24T06:55:47;3.80;;;3.45;;
16839;SDS011;8536;52.150;11.572;2023-03-24T06:58:14;5.03;;;3.83;;
16839;SDS011;8536;52.150;11.572;2023-03-24T07:00:43;4.55;;;3.75;;
16839;SDS011;8536;52.150;11.572;2023-03-24T07:03:13;5.00;;;3.65;;
16839;SDS011;8536;52.150;11.572;2023-03-24T07:05:42;3.65;;;3.35;;
16839;SDS011;8536;52.150;11.572;2023-03-24T07:08:10;3.65;;;3.35;;
16839;SDS011;8536;52.150;11.572;2023-03-24T07:10:40;3.70;;;3.20;;
16839;SDS011;8536;52.150;11.572;2023-03-24T07:13:06;3.80;;;3.50;;
16839;SDS011;8536;52.150;11.572;2023-03-24T07:15:33;4.38;;;3.15;;
16839;SDS011;8536;52.150;11.572;2023-03-24T07:18:00;4.72;;;3.47;;
16839;SDS011;8536;52.150;11.572;2023-03-24T07:20:27;3.47;;;3.17;;
16839;SDS011;8536;52.150;11.572;2023-03-24T07:22:56;3.92;;;3.53;;
16839;SDS011;8536;52.150;11.572;2023-03-24T07:25:23;3.80;;;3.50;;
16839;SDS011;8536;52.150;11.572;2023-03-24T07:27:54;7.10;;;3.50;;
16839;SDS011;8536;52.150;11.572;2023-03-24T07:30:21;3.67;;;3.35;;
16839;SDS011;8536;52.150;11.572;2023-03-24T07:32:58;5.25;;;3.65;;
16839;SDS011;8536;52.150;11.572;2023-03-24T07:35:27;3.67;;;3.15;;
16839;SDS011;8536;52.150;11.572;2023-03-24T07:37:58;4.38;;;3.40;;
16839;SDS011;8536;52.150;11.572;2023-03-24T07:40:25;3.95;;;3.40;;
16839;SDS011;8536;52.150;11.572;2023-03-24T07:42:53;3.53;;;3.22;;
16839;SDS011;8536;52.150;11.572;2023-03-24T07:45:19;3.65;;;3.35;;
16839;SDS011;8536;52.150;11.572;2023-03-24T07:47:46;4.10;;;3.58;;
16839;SDS011;8536;52.150;11.572;2023-03-24T07:50:13;3.70;;;3.40;;
16839;SDS011;8536;52.150;11.572;2023-03-24T07:52:40;4.05;;;3.60;;
16839;SDS011;8536;52.150;11.572;2023-03-24T07:55:08;3.47;;;3.17;;
16839;SDS011;8536;52.150;11.572;2023-03-24T07:57:39;5.28;;;3.40;;
16839;SDS011;8536;52.150;11.572;2023-03-24T08:00:07;3.63;;;3.33;;
16839;SDS011;8536;52.150;11.572;2023-03-24T08:02:43;4.00;;;3.55;;
16839;SDS011;8536;52.150;11.572;2023-03-24T08:05:12;4.13;;;3.08;;
16839;SDS011;8536;52.150;11.572;2023-03-24T08:07:45;4.20;;;3.45;;
16839;SDS011;8536;52.150;11.572;2023-03-24T08:10:19;3.72;;;3.42;;
16839;SDS011;8536;52.150;11.572;2023-03-24T08:12:50;3.70;;;3.17;;
16839;SDS011;8536;52.150;11.572;2023-03-24T08:15:17;4.13;;;3.33;;
16839;SDS011;8536;52.150;11.572;2023-03-24T08:17:44;4.78;;;3.88;;
16839;SDS011;8536;52.150;11.572;2023-03-24T08:20:11;4.65;;;3.40;;
16839;SDS011;8536;52.150;11.572;2023-03-24T08:22:41;3.45;;;2.90;;
16839;SDS011;8536;52.150;11.572;2023-03-24T08:25:09;4.72;;;3.38;;
16839;SDS011;8536;52.150;11.572;2023-03-24T08:27:36;3.85;;;3.05;;
16839;SDS011;8536;52.150;11.572;2023-03-24T08:30:07;3.85;;;3.55;;
16839;SDS011;8536;52.150;11.572;2023-03-24T08:32:36;4.00;;;3.60;;
16839;SDS011;8536;52.150;11.572;2023-03-24T08:35:02;3.97;;;3.58;;
16839;SDS011;8536;52.150;11.572;2023-03-24T08:37:30;4.38;;;3.97;;
16839;SDS011;8536;52.150;11.572;2023-03-24T08:39:57;4.03;;;3.60;;
16839;SDS011;8536;52.150;11.572;2023-03-24T08:42:24;3.72;;;3.40;;
16839;SDS011;8536;52.150;11.572;2023-03-24T08:44:51;4.57;;;3.53;;
16839;SDS011;8536;52.150;11.572;2023-03-24T08:47:17;3.40;;;3.10;;
16839;SDS011;8536;52.150;11.572;2023-03-24T08:49:44;4.53;;;3.42;;
16839;SDS011;8536;52.150;11.572;2023-03-24T08:52:11;4.38;;;3.22;;
16839;SDS011;8536;52.150;11.572;2023-03-24T08:54:37;3.53;;;2.78;;
16839;SDS011;8536;52.150;11.572;2023-03-24T08:57:04;4.95;;;2.40;;
16839;SDS011;8536;52.150;11.572;2023-03-24T08:59:31;2.17;;;1.80;;
16839;SDS011;8536;52.150;11.572;2023-03-24T09:01:57;1.83;;;1.20;;
16839;SDS011;8536;52.150;11.572;2023-03-24T09:04:24;1.80;;;1.70;;
16839;SDS011;8536;52.150;11.572;2023-03-24T09:06:51;2.78;;;1.35;;
16839;SDS011;8536;52.150;11.572;2023-03-24T09:09:18;1.60;;;1.23;;
16839;SDS011;8536;52.150;11.572;2023-03-24T09:11:45;1.65;;;1.20;;
16839;SDS011;8536;52.150;11.572;2023-03-24T09:14:13;2.45;;;1.02;;
16839;SDS011;8536;52.150;11.572;2023-03-24T09:16:40;1.15;;;1.00;;
16839;SDS011;8536;52.150;11.572;2023-03-24T09:19:09;1.35;;;1.20;;
16839;SDS011;8536;52.150;11.572;2023-03-24T09:21:35;2.83;;;1.23;;
16839;SDS011;8536;52.150;11.572;2023-03-24T09:24:03;3.10;;;1.30;;
16839;SDS011;8536;52.150;11.572;2023-03-24T09:26:30;2.65;;;1.50;;
16839;SDS011;8536;52.150;11.572;2023-03-24T09:28:58;2.05;;;1.38;;
16839;SDS011;8536;52.150;11.572;2023-03-24T09:31:25;2.25;;;1.17;;
16839;SDS011;8536;52.150;11.572;2023-03-24T09:33:52;1.73;;;1.58;;
16839;SDS011;8536;52.150;11.572;2023-03-24T09:36:18;2.75;;;1.50;;
16839;SDS011;8536;52.150;11.572;2023-03-24T09:38:45;1.90;;;1.20;;
16839;SDS011;8536;52.150;11.572;2023-03-24T09:41:14;2.83;;;1.48;;
16839;SDS011;8536;52.150;11.572;2023-03-24T09:43:43;1.50;;;1.40;;
16839;SDS011;8536;52.150;11.572;2023-03-24T09:46:14;1.67;;;1.58;;
16839;SDS011;8536;52.150;11.572;2023-03-24T09:48:59;1.83;;;1.67;;
16839;SDS011;8536;52.150;11.572;2023-03-24T09:51:26;1.67;;;1.45;;
16839;SDS011;8536;52.150;11.572;2023-03-24T09:56:34;1.63;;;1.52;;
16839;SDS011;8536;52.150;11.572;2023-03-24T09:59:14;3.13;;;1.92;;
16839;SDS011;8536;52.150;11.572;2023-03-24T10:01:43;2.15;;;1.88;;
16839;SDS011;8536;52.150;11.572;2023-03-24T10:04:15;2.58;;;1.83;;
16839;SDS011;8536;52.150;11.572;2023-03-24T10:06:45;2.03;;;1.50;;
16839;SDS011;8536;52.150;11.572;2023-03-24T10:09:27;3.15;;;1.70;;
16839;SDS011;8536;52.150;11.572;2023-03-24T10:11:59;2.40;;;1.75;;
16839;SDS011;8536;52.150;11.572;2023-03-24T10:18:14;2.25;;;1.42;;
16839;SDS011;8536;52.150;11.572;2023-03-24T10:21:03;1.65;;;1.55;;
16839;SDS011;8536;52.150;11.572;2023-03-24T10:23:46;1.85;;;1.30;;
16839;SDS011;8536;52.150;11.572;2023-03-24T10:29:28;3.88;;;1.58;;
16839;SDS011;8536;52.150;11.572;2023-03-24T10:31:53;1.92;;;1.60;;
16839;SDS011;8536;52.150;11.572;2023-03-24T10:34:25;1.63;;;1.52;;
16839;SDS011;8536;52.150;11.572;2023-03-24T10:36:55;2.25;;;1.33;;
16839;SDS011;8536;52.150;11.572;2023-03-24T10:39:23;2.28;;;1.70;;
16839;SDS011;8536;52.150;11.572;2023-03-24T10:42:08;1.92;;;1.50;;
16839;SDS011;8536;52.150;11.572;2023-03-24T10:44:39;1.60;;;1.50;;
16839;SDS011;8536;52.150;11.572;2023-03-24T10:47:05;1.77;;;1.58;;
16839;SDS011;8536;52.150;11.572;2023-03-24T10:49:35;1.67;;;1.58;;
16839;SDS011;8536;52.150;11.572;2023-03-24T10:52:07;4.05;;;1.73;;
16839;SDS011;8536;52.150;11.572;2023-03-24T10:54:34;2.30;;;1.60;;
16839;SDS011;8536;52.150;11.572;2023-03-24T10:57:03;5.20;;;1.90;;
16839;SDS011;8536;52.150;11.572;2023-03-24T11:01:58;4.82;;;3.00;;
16839;SDS011;8536;52.150;11.572;2023-03-24T11:04:29;3.17;;;2.20;;
16839;SDS011;8536;52.150;11.572;2023-03-24T11:07:04;4.47;;;3.85;;
16839;SDS011;8536;52.150;11.572;2023-03-24T11:09:41;3.97;;;3.05;;
16839;SDS011;8536;52.150;11.572;2023-03-24T11:12:25;4.40;;;3.80;;
16839;SDS011;8536;52.150;11.572;2023-03-24T11:15:00;5.88;;;3.22;;
16839;SDS011;8536;52.150;11.572;2023-03-24T11:17:48;2.83;;;1.98;;
16839;SDS011;8536;52.150;11.572;2023-03-24T11:20:20;3.03;;;2.05;;
16839;SDS011;8536;52.150;11.572;2023-03-24T11:23:18;2.80;;;2.30;;
16839;SDS011;8536;52.150;11.572;2023-03-24T11:25:49;7.05;;;3.55;;
16839;SDS011;8536;52.150;11.572;2023-03-24T11:28:20;4.55;;;3.38;;
16839;SDS011;8536;52.150;11.572;2023-03-24T11:30:52;5.43;;;3.40;;
16839;SDS011;8536;52.150;11.572;2023-03-24T11:33:24;4.82;;;2.85;;
16839;SDS011;8536;52.150;11.572;2023-03-24T11:36:05;6.18;;;3.45;;
16839;SDS011;8536;52.150;11.572;2023-03-24T11:38:38;3.70;;;2.00;;
16839;SDS011;8536;52.150;11.572;2023-03-24T11:41:04;2.40;;;1.33;;
16839;SDS011;8536;52.150;11.572;2023-03-24T11:43:32;1.58;;;1.00;;
16839;SDS011;8536;52.150;11.572;2023-03-24T11:46:00;1.73;;;1.13;;
16839;SDS011;8536;52.150;11.572;2023-03-24T11:48:32;2.97;;;1.40;;
16839;SDS011;8536;52.150;11.572;2023-03-24T11:51:07;3.90;;;1.63;;
16839;SDS011;8536;52.150;11.572;2023-03-24T11:53:40;2.55;;;1.20;;
16839;SDS011;8536;52.150;11.572;2023-03-24T11:56:12;2.55;;;1.40;;
16839;SDS011;8536;52.150;11.572;2023-03-24T11:58:49;3.10;;;1.42;;
16839;SDS011;8536;52.150;11.572;2023-03-24T12:09:37;2.53;;;1.30;;
16839;SDS011;8536;52.150;11.572;2023-03-24T12:14:50;2.78;;;1.50;;
16839;SDS011;8536;52.150;11.572;2023-03-24T12:20:29;4.15;;;1.88;;
16839;SDS011;8536;52.150;11.572;2023-03-24T12:42:47;3.67;;;1.85;;
16839;SDS011;8536;52.150;11.572;2023-03-24T12:51:04;4.00;;;2.20;;
16839;SDS011;8536;52.150;11.572;2023-03-24T12:56:26;3.53;;;1.88;;
16839;SDS011;8536;52.150;11.572;2023-03-24T12:59:03;5.82;;;1.90;;
16839;SDS011;8536;52.150;11.572;2023-03-24T13:01:45;3.50;;;1.80;;
16839;SDS011;8536;52.150;11.572;2023-03-24T13:04:28;4.88;;;2.08;;
16839;SDS011;8536;52.150;11.572;2023-03-24T13:07:07;3.92;;;2.25;;
16839;SDS011;8536;52.150;11.572;2023-03-24T13:12:31;3.78;;;1.80;;
16839;SDS011;8536;52.150;11.572;2023-03-24T13:15:13;4.65;;;2.13;;
16839;SDS011;8536;52.150;11.572;2023-03-24T13:18:18;4.63;;;2.22;;
16839;SDS011;8536;52.150;11.572;2023-03-24T13:20:38;4.28;;;2.58;;
16839;SDS011;8536;52.150;11.572;2023-03-24T13:28:55;4.55;;;2.08;;
16839;SDS011;8536;52.150;11.572;2023-03-24T13:31:30;4.40;;;2.03;;
16839;SDS011;8536;52.150;11.572;2023-03-24T13:34:01;4.53;;;2.20;;
16839;SDS011;8536;52.150;11.572;2023-03-24T13:36:33;5.93;;;2.50;;
16839;SDS011;8536;52.150;11.572;2023-03-24T13:39:05;4.95;;;2.20;;
16839;SDS011;8536;52.150;11.572;2023-03-24T13:41:37;4.68;;;2.45;;
16839;SDS011;8536;52.150;11.572;2023-03-24T13:44:08;5.68;;;2.35;;
16839;SDS011;8536;52.150;11.572;2023-03-24T13:46:42;4.57;;;2.42;;
16839;SDS011;8536;52.150;11.572;2023-03-24T13:49:38;3.75;;;2.35;;
16839;SDS011;8536;52.150;11.572;2023-03-24T13:52:06;2.75;;;2.22;;
16839;SDS011;8536;52.150;11.572;2023-03-24T13:54:47;4.28;;;2.33;;
16839;SDS011;8536;52.150;11.572;2023-03-24T13:57:15;8.93;;;2.85;;
16839;SDS011;8536;52.150;11.572;2023-03-24T13:59:57;3.92;;;2.17;;
16839;SDS011;8536;52.150;11.572;2023-03-24T14:02:44;4.45;;;2.20;;
16839;SDS011;8536;52.150;11.572;2023-03-24T14:08:32;5.60;;;2.25;;
16839;SDS011;8536;52.150;11.572;2023-03-24T14:11:39;3.13;;;2.13;;
16839;SDS011;8536;52.150;11.572;2023-03-24T14:19:37;4.47;;;2.15;;
16839;SDS011;8536;52.150;11.572;2023-03-24T14:22:32;3.95;;;2.20;;
16839;SDS011;8536;52.150;11.572;2023-03-24T14:25:04;5.18;;;2.17;;
16839;SDS011;8536;52.150;11.572;2023-03-24T14:27:43;4.88;;;2.20;;
16839;SDS011;8536;52.150;11.572;2023-03-24T14:32:50;5.65;;;2.22;;
16839;SDS011;8536;52.150;11.572;2023-03-24T14:40:40;6.60;;;2.50;;
16839;SDS011;8536;52.150;11.572;2023-03-24T14:43:22;5.25;;;2.42;;
16839;SDS011;8536;52.150;11.572;2023-03-24T14:48:37;4.75;;;2.13;;
16839;SDS011;8536;52.150;11.572;2023-03-24T14:54:16;7.07;;;2.30;;
16839;SDS011;8536;52.150;11.572;2023-03-24T14:56:46;5.60;;;2.33;;
16839;SDS011;8536;52.150;11.572;2023-03-24T14:59:35;5.63;;;2.65;;
16839;SDS011;8536;52.150;11.572;2023-03-24T15:02:29;5.68;;;2.05;;
16839;SDS011;8536;52.150;11.572;2023-03-24T15:05:22;5.18;;;2.03;;
16839;SDS011;8536;52.150;11.572;2023-03-24T15:08:13;6.18;;;2.08;;
16839;SDS011;8536;52.150;11.572;2023-03-24T15:10:48;4.30;;;2.00;;
16839;SDS011;8536;52.150;11.572;2023-03-24T15:18:42;3.60;;;2.00;;
16839;SDS011;8536;52.150;11.572;2023-03-24T15:23:55;6.80;;;2.60;;
16839;SDS011;8536;52.150;11.572;2023-03-24T15:26:23;4.05;;;1.92;;
16839;SDS011;8536;52.150;11.572;2023-03-24T15:29:09;4.15;;;1.77;;
16839;SDS011;8536;52.150;11.572;2023-03-24T15:31:36;4.90;;;2.30;;
16839;SDS011;8536;52.150;11.572;2023-03-24T15:34:07;3.80;;;1.98;;
16839;SDS011;8536;52.150;11.572;2023-03-24T15:36:53;5.00;;;1.63;;
16839;SDS011;8536;52.150;11.572;2023-03-24T15:39:34;4.20;;;1.60;;
16839;SDS011;8536;52.150;11.572;2023-03-24T15:42:06;5.00;;;1.95;;
16839;SDS011;8536;52.150;11.572;2023-03-24T15:44:37;4.90;;;2.00;;
16839;SDS011;8536;52.150;11.572;2023-03-24T15:47:09;6.15;;;2.03;;
16839;SDS011;8536;52.150;11.572;2023-03-24T15:49:58;4.25;;;2.00;;
16839;SDS011;8536;52.150;11.572;2023-03-24T15:52:27;5.20;;;2.05;;
16839;SDS011;8536;52.150;11.572;2023-03-24T15:54:55;5.05;;;2.10;;
16839;SDS011;8536;52.150;11.572;2023-03-24T15:57:24;5.22;;;1.83;;
16839;SDS011;8536;52.150;11.572;2023-03-24T16:02:32;5.35;;;2.20;;
16839;SDS011;8536;52.150;11.572;2023-03-24T16:05:10;5.88;;;2.00;;
16839;SDS011;8536;52.150;11.572;2023-03-24T16:08:20;4.78;;;2.00;;
16839;SDS011;8536;52.150;11.572;2023-03-24T16:10:34;6.07;;;2.13;;
16839;SDS011;8536;52.150;11.572;2023-03-24T16:13:13;4.82;;;1.60;;
16839;SDS011;8536;52.150;11.572;2023-03-24T16:15:46;4.40;;;1.73;;
16839;SDS011;8536;52.150;11.572;2023-03-24T16:18:16;3.33;;;1.63;;
16839;SDS011;8536;52.150;11.572;2023-03-24T16:20:44;5.07;;;1.63;;
16839;SDS011;8536;52.150;11.572;2023-03-24T16:23:11;4.65;;;2.08;;
16839;SDS011;8536;52.150;11.572;2023-03-24T16:25:38;4.18;;;1.80;;
16839;SDS011;8536;52.150;11.572;2023-03-24T16:28:05;4.15;;;1.80;;
16839;SDS011;8536;52.150;11.572;2023-03-24T16:30:35;5.25;;;1.90;;
16839;SDS011;8536;52.150;11.572;2023-03-24T16:33:04;3.28;;;1.50;;
16839;SDS011;8536;52.150;11.572;2023-03-24T16:35:32;4.85;;;1.88;;
16839;SDS011;8536;52.150;11.572;2023-03-24T16:38:00;4.53;;;1.80;;
16839;SDS011;8536;52.150;11.572;2023-03-24T16:40:34;5.10;;;1.63;;
16839;SDS011;8536;52.150;11.572;2023-03-24T16:43:03;5.85;;;1.73;;
16839;SDS011;8536;52.150;11.572;2023-03-24T16:45:30;4.03;;;1.90;;
16839;SDS011;8536;52.150;11.572;2023-03-24T16:47:57;5.28;;;1.85;;
16839;SDS011;8536;52.150;11.572;2023-03-24T16:50:31;4.35;;;1.98;;
16839;SDS011;8536;52.150;11.572;2023-03-24T16:53:01;5.38;;;2.17;;
16839;SDS011;8536;52.150;11.572;2023-03-24T16:55:34;5.28;;;2.25;;
16839;SDS011;8536;52.150;11.572;2023-03-24T16:58:01;6.53;;;1.92;;
16839;SDS011;8536;52.150;11.572;2023-03-24T17:00:30;4.95;;;2.15;;
16839;SDS011;8536;52.150;11.572;2023-03-24T17:02:57;5.80;;;2.08;;
16839;SDS011;8536;52.150;11.572;2023-03-24T17:05:38;6.80;;;2.10;;
16839;SDS011;8536;52.150;11.572;2023-03-24T17:08:06;6.40;;;2.03;;
16839;SDS011;8536;52.150;11.572;2023-03-24T17:10:33;4.57;;;2.13;;
16839;SDS011;8536;52.150;11.572;2023-03-24T17:12:59;4.13;;;2.20;;
16839;SDS011;8536;52.150;11.572;2023-03-24T17:15:27;4.40;;;2.33;;
16839;SDS011;8536;52.150;11.572;2023-03-24T17:17:55;4.38;;;2.03;;
16839;SDS011;8536;52.150;11.572;2023-03-24T17:20:23;4.60;;;2.30;;
16839;SDS011;8536;52.150;11.572;2023-03-24T17:22:50;4.95;;;2.00;;
16839;SDS011;8536;52.150;11.572;2023-03-24T17:25:20;3.45;;;1.70;;
16839;SDS011;8536;52.150;11.572;2023-03-24T17:27:48;4.72;;;2.13;;
16839;SDS011;8536;52.150;11.572;2023-03-24T17:30:17;4.18;;;2.05;;
16839;SDS011;8536;52.150;11.572;2023-03-24T17:32:45;4.43;;;2.38;;
16839;SDS011;8536;52.150;11.572;2023-03-24T17:35:13;3.15;;;1.70;;
16839;SDS011;8536;52.150;11.572;2023-03-24T17:37:42;6.07;;;2.47;;
16839;SDS011;8536;52.150;11.572;2023-03-24T17:40:09;7.13;;;2.75;;
16839;SDS011;8536;52.150;11.572;2023-03-24T17:42:37;4.85;;;2.90;;